createdAt,value
2022-12-29T00:01:38.527Z,7.57
2022-12-29T00:04:14.313Z,7.58
2022-12-29T00:06:44.173Z,7.57
2022-12-29T00:09:16.687Z,7.56
2022-12-29T00:11:43.806Z,7.54
2022-12-29T00:14:30.631Z,7.56
2022-12-29T00:16:58.164Z,7.57
2022-12-29T00:19:43.655Z,7.60
2022-12-29T00:22:33.819Z,7.61
2022-12-29T00:25:01.394Z,7.61
2022-12-29T00:27:48.896Z,7.63
2022-12-29T00:30:38.609Z,7.63
2022-12-29T00:33:38.176Z,7.65
2022-12-29T00:36:22.786Z,7.72
2022-12-29T00:39:14.320Z,7.76
2022-12-29T00:42:02.580Z,7.80
2022-12-29T00:44:29.923Z,7.80
2022-12-29T00:46:59.655Z,7.81
2022-12-29T00:49:32.223Z,7.80
2022-12-29T00:52:33.500Z,7.82
2022-12-29T00:54:59.887Z,7.83
2022-12-29T00:57:26.327Z,7.88
2022-12-29T00:59:52.848Z,7.89
2022-12-29T01:02:19.567Z,7.95
2022-12-29T01:04:46.149Z,7.98
2022-12-29T01:07:12.555Z,7.98
2022-12-29T01:09:57.788Z,8.01
2022-12-29T01:12:41.250Z,8.04
2022-12-29T01:15:09.999Z,8.05
2022-12-29T01:17:36.644Z,8.09
2022-12-29T01:20:04.117Z,8.11
2022-12-29T01:22:30.511Z,8.14
2022-12-29T01:24:57.297Z,8.15
2022-12-29T01:27:23.722Z,8.14
2022-12-29T01:29:50.247Z,8.15
2022-12-29T01:32:16.696Z,8.18
2022-12-29T01:34:44.751Z,8.19
2022-12-29T01:37:11.823Z,8.16
2022-12-29T01:39:38.263Z,8.16
2022-12-29T01:42:04.723Z,8.16
2022-12-29T01:44:51.359Z,8.14
2022-12-29T01:47:39.329Z,8.14
2022-12-29T01:50:13.437Z,8.11
2022-12-29T01:52:45.997Z,8.15
2022-12-29T01:55:13.316Z,8.16
2022-12-29T01:57:45.000Z,8.20
2022-12-29T02:00:14.637Z,8.23
2022-12-29T02:02:45.744Z,8.27
2022-12-29T02:05:24.213Z,8.29
2022-12-29T02:07:52.575Z,8.31
2022-12-29T02:10:22.232Z,8.33
2022-12-29T02:12:49.213Z,8.36
2022-12-29T02:15:16.458Z,8.36
2022-12-29T02:18:03.709Z,8.34
2022-12-29T02:21:06.597Z,8.35
2022-12-29T02:24:10.635Z,8.39
2022-12-29T02:27:01.905Z,8.43
2022-12-29T02:29:53.016Z,8.53
2022-12-29T02:32:45.711Z,8.56
2022-12-29T02:35:26.425Z,8.60
2022-12-29T02:38:20.671Z,8.68
2022-12-29T02:40:59.071Z,8.77
2022-12-29T02:43:37.598Z,8.86
2022-12-29T02:46:24.609Z,8.91
2022-12-29T02:49:16.048Z,8.90
2022-12-29T02:51:52.509Z,8.88
2022-12-29T02:54:38.565Z,8.86
2022-12-29T02:57:18.297Z,8.85
2022-12-29T02:59:46.149Z,8.84
2022-12-29T03:02:37.700Z,8.82
2022-12-29T03:05:25.450Z,8.81
2022-12-29T03:08:10.682Z,8.80
2022-12-29T03:10:49.392Z,8.77
2022-12-29T03:13:42.081Z,8.79
2022-12-29T03:16:20.964Z,8.77
2022-12-29T03:18:52.627Z,8.77
2022-12-29T03:22:04.360Z,8.78
2022-12-29T03:24:35.951Z,8.79
2022-12-29T03:27:05.837Z,8.79
2022-12-29T03:29:36.612Z,8.83
2022-12-29T03:32:05.778Z,8.83
2022-12-29T03:34:34.097Z,8.83
2022-12-29T03:37:14.159Z,8.84
2022-12-29T03:39:41.960Z,8.82
2022-12-29T03:42:15.984Z,8.84
2022-12-29T03:44:44.733Z,8.85
2022-12-29T03:47:13.351Z,8.87
2022-12-29T03:49:40.350Z,8.99
2022-12-29T03:52:06.859Z,9.08
2022-12-29T03:54:33.901Z,9.14
2022-12-29T03:57:00.662Z,9.20
2022-12-29T03:59:27.047Z,9.17
2022-12-29T04:01:53.561Z,9.23
2022-12-29T04:04:19.969Z,9.30
2022-12-29T04:06:46.420Z,9.34
2022-12-29T04:09:12.923Z,9.33
2022-12-29T04:11:39.258Z,9.30
2022-12-29T04:14:05.742Z,9.28
2022-12-29T04:16:32.125Z,9.27
2022-12-29T04:18:58.465Z,9.25
2022-12-29T04:21:24.925Z,9.29
2022-12-29T04:23:51.265Z,9.45
2022-12-29T04:26:17.706Z,9.53
2022-12-29T04:28:44.051Z,9.59
2022-12-29T04:31:10.795Z,9.60
2022-12-29T04:33:37.172Z,9.64
2022-12-29T04:36:03.700Z,9.66
2022-12-29T04:38:30.102Z,9.67
2022-12-29T04:40:59.650Z,9.70
2022-12-29T04:43:26.056Z,9.68
2022-12-29T04:45:52.638Z,9.66
2022-12-29T04:48:19.000Z,9.60
2022-12-29T04:50:48.857Z,9.67
2022-12-29T04:53:16.016Z,9.69
2022-12-29T04:55:42.531Z,9.70
2022-12-29T04:58:08.945Z,9.69
2022-12-29T05:00:35.403Z,9.73
2022-12-29T05:03:02.401Z,9.79
2022-12-29T05:05:28.932Z,9.81
2022-12-29T05:07:55.343Z,9.76
2022-12-29T05:10:21.718Z,9.78
2022-12-29T05:12:48.283Z,9.80
2022-12-29T05:15:14.669Z,9.77
2022-12-29T05:17:41.000Z,9.82
2022-12-29T05:20:08.121Z,9.85
2022-12-29T05:22:34.707Z,9.90
2022-12-29T05:25:01.136Z,9.93
2022-12-29T05:27:27.839Z,9.93
2022-12-29T05:29:54.335Z,9.95
2022-12-29T05:32:20.751Z,9.94
2022-12-29T05:34:47.296Z,9.88
2022-12-29T05:37:13.771Z,9.85
2022-12-29T05:39:40.691Z,9.83
2022-12-29T05:42:07.073Z,9.84
2022-12-29T05:44:34.174Z,9.85
2022-12-29T05:47:00.632Z,9.83
2022-12-29T05:49:27.088Z,9.85
2022-12-29T05:51:53.518Z,9.90
2022-12-29T05:54:19.906Z,9.93
2022-12-29T05:56:46.432Z,9.99
2022-12-29T05:59:12.813Z,10.00
2022-12-29T06:01:39.394Z,10.07
2022-12-29T06:04:05.857Z,10.10
2022-12-29T06:06:32.270Z,10.15
2022-12-29T06:08:58.647Z,10.21
2022-12-29T06:11:24.993Z,10.14
2022-12-29T06:13:51.423Z,10.04
2022-12-29T06:16:18.005Z,9.95
2022-12-29T06:18:44.477Z,9.90
2022-12-29T06:21:10.954Z,9.89
2022-12-29T06:23:37.418Z,9.96
2022-12-29T06:26:03.830Z,10.08
2022-12-29T06:28:30.214Z,10.06
2022-12-29T06:30:56.625Z,10.08
2022-12-29T06:33:23.111Z,10.08
2022-12-29T06:35:49.567Z,10.03
2022-12-29T06:38:16.310Z,10.02
2022-12-29T06:40:45.738Z,10.00
2022-12-29T06:43:12.168Z,9.97
2022-12-29T06:45:40.818Z,9.90
2022-12-29T06:48:08.033Z,9.85
2022-12-29T06:50:34.416Z,9.79
2022-12-29T06:53:02.028Z,9.73
2022-12-29T06:55:29.181Z,9.67
2022-12-29T06:57:57.353Z,9.62
2022-12-29T07:00:25.091Z,9.56
2022-12-29T07:02:52.087Z,9.50
2022-12-29T07:05:19.038Z,9.48
2022-12-29T07:07:45.415Z,9.45
2022-12-29T07:10:12.074Z,9.44
2022-12-29T07:12:38.425Z,9.46
2022-12-29T07:15:05.119Z,9.45
2022-12-29T07:17:31.736Z,9.50
2022-12-29T07:19:58.144Z,9.53
2022-12-29T07:22:24.606Z,9.53
2022-12-29T07:24:51.059Z,9.51
2022-12-29T07:27:17.501Z,9.52
2022-12-29T07:29:43.933Z,9.54
2022-12-29T07:32:10.370Z,9.54
2022-12-29T07:34:36.767Z,9.55
2022-12-29T07:37:03.206Z,9.54
2022-12-29T07:39:29.747Z,9.55
2022-12-29T07:42:01.059Z,9.52
2022-12-29T07:44:30.844Z,9.52
2022-12-29T07:46:57.916Z,9.56
2022-12-29T07:49:25.448Z,9.59
2022-12-29T07:51:51.997Z,9.58
2022-12-29T07:54:19.379Z,9.62
2022-12-29T07:56:46.542Z,9.61
2022-12-29T07:59:15.894Z,9.64
2022-12-29T08:01:42.495Z,9.68
2022-12-29T08:04:09.196Z,9.75
2022-12-29T08:06:36.064Z,9.84
2022-12-29T08:09:11.128Z,9.95
2022-12-29T08:11:41.500Z,10.00
2022-12-29T08:14:07.960Z,10.02
2022-12-29T08:16:34.420Z,10.08
2022-12-29T08:19:01.138Z,10.17
2022-12-29T08:21:30.925Z,10.19
2022-12-29T08:23:57.526Z,10.22
2022-12-29T08:26:24.156Z,10.24
2022-12-29T08:28:53.606Z,10.24
2022-12-29T08:31:20.154Z,10.25
2022-12-29T08:33:46.565Z,10.24
2022-12-29T08:36:12.933Z,10.29
2022-12-29T08:38:39.271Z,10.35
2022-12-29T08:41:05.677Z,10.36
2022-12-29T08:43:32.111Z,10.43
2022-12-29T08:46:01.401Z,10.43
2022-12-29T08:48:27.930Z,10.40
2022-12-29T08:50:54.646Z,10.43
2022-12-29T08:53:21.211Z,10.43
2022-12-29T08:55:48.638Z,10.40
2022-12-29T08:58:15.698Z,10.40
2022-12-29T09:00:43.246Z,10.49
2022-12-29T09:03:10.473Z,10.53
2022-12-29T09:05:37.227Z,10.55
2022-12-29T09:08:04.028Z,10.58
2022-12-29T09:10:30.427Z,10.71
2022-12-29T09:12:56.944Z,10.78
2022-12-29T09:15:23.423Z,10.81
2022-12-29T09:17:50.062Z,10.83
2022-12-29T09:20:19.281Z,10.83
2022-12-29T09:22:46.860Z,10.81
2022-12-29T09:25:14.281Z,10.79
2022-12-29T09:27:41.058Z,10.81
2022-12-29T09:30:10.297Z,10.82
2022-12-29T09:32:43.629Z,10.79
2022-12-29T09:35:11.686Z,10.80
2022-12-29T09:37:38.051Z,10.84
2022-12-29T09:40:05.855Z,10.90
2022-12-29T09:43:04.218Z,11.00
2022-12-29T09:45:36.820Z,11.05
2022-12-29T09:48:09.767Z,11.12
2022-12-29T09:50:38.708Z,11.22
2022-12-29T09:53:29.777Z,11.34
2022-12-29T09:55:58.983Z,11.40
2022-12-29T09:58:30.054Z,11.51
2022-12-29T10:01:27.318Z,11.66
2022-12-29T10:03:56.887Z,11.67
2022-12-29T10:07:03.724Z,11.62
2022-12-29T10:09:34.186Z,11.55
2022-12-29T10:12:03.523Z,11.48
2022-12-29T10:14:29.863Z,11.47
2022-12-29T10:17:34.687Z,11.46
2022-12-29T10:20:19.273Z,11.47
2022-12-29T10:23:07.377Z,11.51
2022-12-29T10:25:38.739Z,11.57
2022-12-29T10:28:18.672Z,11.58
2022-12-29T10:30:48.190Z,11.56
2022-12-29T10:33:20.599Z,11.50
2022-12-29T10:35:48.357Z,11.49
2022-12-29T10:38:35.934Z,11.50
2022-12-29T10:41:35.244Z,11.56
2022-12-29T10:44:02.074Z,11.55
2022-12-29T10:46:33.588Z,11.54
2022-12-29T10:49:00.369Z,11.53
2022-12-29T10:51:32.046Z,11.53
2022-12-29T10:54:12.432Z,11.61
2022-12-29T10:57:19.419Z,11.81
2022-12-29T10:59:46.019Z,12.03
2022-12-29T11:02:12.558Z,12.23
2022-12-29T11:05:02.992Z,12.43
2022-12-29T11:07:31.289Z,12.58
2022-12-29T11:10:17.268Z,12.70
2022-12-29T11:13:11.491Z,12.68
2022-12-29T11:15:53.466Z,12.65
2022-12-29T11:18:22.821Z,12.65
2022-12-29T11:20:53.743Z,12.76
2022-12-29T11:23:23.231Z,12.82
2022-12-29T11:26:15.570Z,12.87
2022-12-29T11:28:45.670Z,12.82
2022-12-29T11:31:17.335Z,12.76
2022-12-29T11:33:43.868Z,12.73
2022-12-29T11:36:18.339Z,12.74
2022-12-29T11:38:56.260Z,12.79
2022-12-29T11:41:28.725Z,12.78
2022-12-29T11:43:59.089Z,12.77
2022-12-29T11:46:30.544Z,12.68
2022-12-29T11:49:00.495Z,12.60
2022-12-29T11:51:45.735Z,12.55
2022-12-29T11:54:23.138Z,12.53
2022-12-29T11:56:52.709Z,12.46
2022-12-29T11:59:35.275Z,12.35
2022-12-29T12:02:12.154Z,12.18
2022-12-29T12:04:39.513Z,12.04
2022-12-29T12:07:08.959Z,11.91
2022-12-29T12:09:39.865Z,11.81
2022-12-29T12:12:09.568Z,11.73
2022-12-29T12:14:43.459Z,11.66
2022-12-29T12:17:14.863Z,11.61
2022-12-29T12:19:50.448Z,11.59
2022-12-29T12:22:32.805Z,11.60
2022-12-29T12:25:07.278Z,11.60
2022-12-29T12:27:45.083Z,11.62
2022-12-29T12:30:17.354Z,11.65
2022-12-29T12:32:56.614Z,11.62
2022-12-29T12:35:50.612Z,11.61
2022-12-29T12:39:04.420Z,11.73
2022-12-29T12:41:53.048Z,11.85
2022-12-29T12:45:01.490Z,11.89
2022-12-29T12:47:49.092Z,11.88
2022-12-29T12:50:28.922Z,11.88
2022-12-29T12:53:38.306Z,11.95
2022-12-29T12:56:46.882Z,12.20
2022-12-29T12:59:16.502Z,12.31
2022-12-29T13:02:04.916Z,12.30
2022-12-29T13:05:01.194Z,12.21
2022-12-29T13:07:31.138Z,12.29
2022-12-29T13:10:22.364Z,12.49
2022-12-29T13:13:14.612Z,12.52
2022-12-29T13:15:53.042Z,12.52
2022-12-29T13:18:43.099Z,12.49
2022-12-29T13:22:02.011Z,12.54
2022-12-29T13:24:47.636Z,12.57
2022-12-29T13:27:17.934Z,12.46
2022-12-29T13:30:03.450Z,12.29
2022-12-29T13:32:36.338Z,12.16
2022-12-29T13:35:26.811Z,12.06
2022-12-29T13:38:12.606Z,11.96
2022-12-29T13:40:44.830Z,11.90
2022-12-29T13:43:14.024Z,11.87
2022-12-29T13:45:42.721Z,11.87
2022-12-29T13:48:37.469Z,11.86
2022-12-29T13:51:05.527Z,11.85
2022-12-29T13:53:57.718Z,11.84
2022-12-29T13:56:40.982Z,11.83
2022-12-29T13:59:29.908Z,11.81
2022-12-29T14:02:12.665Z,11.76
2022-12-29T14:04:57.509Z,11.75
2022-12-29T14:07:24.747Z,11.74
2022-12-29T14:10:02.715Z,11.75
2022-12-29T14:12:44.457Z,11.73
2022-12-29T14:15:11.332Z,11.70
2022-12-29T14:17:45.474Z,11.67
2022-12-29T14:20:28.340Z,11.67
2022-12-29T14:23:02.641Z,11.67
2022-12-29T14:26:07.220Z,11.66
2022-12-29T14:28:48.332Z,11.66
2022-12-29T14:31:14.806Z,11.67
2022-12-29T14:33:42.722Z,11.69
2022-12-29T14:37:04.088Z,11.72
2022-12-29T14:39:42.451Z,11.72
2022-12-29T14:42:11.798Z,11.70
2022-12-29T14:44:49.914Z,11.63
2022-12-29T14:47:21.317Z,11.55
2022-12-29T14:49:47.988Z,11.51
2022-12-29T14:52:20.900Z,11.45
2022-12-29T14:54:59.951Z,11.37
2022-12-29T14:57:40.630Z,11.35
2022-12-29T15:00:12.720Z,11.34
2022-12-29T15:02:43.502Z,11.32
2022-12-29T15:05:27.165Z,11.33
2022-12-29T15:07:56.431Z,11.33
2022-12-29T15:10:24.933Z,11.35
2022-12-29T15:12:55.166Z,11.37
2022-12-29T15:15:27.531Z,11.37
2022-12-29T15:17:54.259Z,11.32
2022-12-29T15:20:24.989Z,11.24
2022-12-29T15:22:57.790Z,11.19
2022-12-29T15:25:26.240Z,11.17
2022-12-29T15:28:06.374Z,11.14
2022-12-29T15:30:34.551Z,11.14
2022-12-29T15:33:06.516Z,11.17
2022-12-29T15:35:39.895Z,11.22
2022-12-29T15:38:30.314Z,11.22
2022-12-29T15:41:04.719Z,11.22
2022-12-29T15:43:58.946Z,11.21
2022-12-29T15:46:26.649Z,11.27
2022-12-29T15:48:57.468Z,11.36
2022-12-29T15:51:38.136Z,11.30
2022-12-29T15:54:07.415Z,10.91
2022-12-29T15:56:44.814Z,10.58
2022-12-29T15:59:34.167Z,10.29
2022-12-29T16:02:14.033Z,10.10
2022-12-29T16:05:09.166Z,9.96
2022-12-29T16:07:42.389Z,9.88
2022-12-29T16:10:34.604Z,9.83
2022-12-29T16:13:16.479Z,9.82
2022-12-29T16:15:47.947Z,9.86
2022-12-29T16:18:53.395Z,9.87
2022-12-29T16:21:44.736Z,9.89
2022-12-29T16:24:21.449Z,9.89
2022-12-29T16:27:00.076Z,9.89
2022-12-29T16:29:30.505Z,9.87
2022-12-29T16:32:04.330Z,9.85
2022-12-29T16:34:45.488Z,9.86
2022-12-29T16:37:41.726Z,9.83
2022-12-29T16:40:27.738Z,9.82
2022-12-29T16:43:05.592Z,9.80
2022-12-29T16:45:48.005Z,9.78
2022-12-29T16:48:14.927Z,9.77
2022-12-29T16:50:44.950Z,9.75
2022-12-29T16:53:25.151Z,9.73
2022-12-29T16:56:01.614Z,9.69
2022-12-29T16:58:38.764Z,9.66
2022-12-29T17:01:20.128Z,9.65
2022-12-29T17:03:58.700Z,9.66
2022-12-29T17:06:26.128Z,9.64
2022-12-29T17:08:57.159Z,9.62
2022-12-29T17:11:44.278Z,9.58
2022-12-29T17:14:24.572Z,9.53
2022-12-29T17:16:56.544Z,9.50
2022-12-29T17:19:46.470Z,9.47
2022-12-29T17:22:26.401Z,9.45
2022-12-29T17:25:31.168Z,9.43
2022-12-29T17:28:33.600Z,9.40
2022-12-29T17:31:09.921Z,9.40
2022-12-29T17:33:52.917Z,9.40
2022-12-29T17:39:17.872Z,9.35
2022-12-29T17:41:46.383Z,9.34
2022-12-29T17:44:21.520Z,9.33
2022-12-29T17:46:49.299Z,9.31
2022-12-29T17:49:19.160Z,9.31
2022-12-29T17:51:48.219Z,9.30
2022-12-29T17:54:33.617Z,9.28
2022-12-29T17:57:12.904Z,9.27
2022-12-29T17:59:44.816Z,9.26
2022-12-29T18:02:35.358Z,9.24
2022-12-29T18:05:08.917Z,9.24
2022-12-29T18:07:36.259Z,9.24
2022-12-29T18:10:07.498Z,9.22
2022-12-29T18:12:45.933Z,9.21
2022-12-29T18:15:30.435Z,9.21
2022-12-29T18:18:08.909Z,9.20
2022-12-29T18:20:35.545Z,9.19
2022-12-29T18:23:01.997Z,9.21
2022-12-29T18:25:41.332Z,9.18
2022-12-29T18:28:07.701Z,9.14
2022-12-29T18:30:35.970Z,9.10
2022-12-29T18:33:02.481Z,9.07
2022-12-29T18:35:37.468Z,9.03
2022-12-29T18:38:05.945Z,9.00
2022-12-29T18:40:36.533Z,8.98
2022-12-29T18:43:03.841Z,8.99
2022-12-29T18:45:32.915Z,8.98
2022-12-29T18:48:00.368Z,8.97
2022-12-29T18:50:26.932Z,8.98
2022-12-29T18:52:53.870Z,8.98
2022-12-29T18:55:24.253Z,8.98
2022-12-29T18:57:51.593Z,8.97
2022-12-29T19:00:20.634Z,8.95
2022-12-29T19:02:48.946Z,8.94
2022-12-29T19:05:25.671Z,8.93
2022-12-29T19:07:52.913Z,8.92
2022-12-29T19:10:20.548Z,8.91
2022-12-29T19:12:47.531Z,8.91
2022-12-29T19:15:24.344Z,8.89
2022-12-29T19:18:16.545Z,8.85
2022-12-29T19:20:43.667Z,8.82
2022-12-29T19:23:20.278Z,8.80
2022-12-29T19:25:51.618Z,8.77
2022-12-29T19:28:27.482Z,8.75
2022-12-29T19:31:01.286Z,8.74
2022-12-29T19:33:34.716Z,8.71
2022-12-29T19:36:08.104Z,8.68
2022-12-29T19:38:43.141Z,8.67
2022-12-29T19:41:13.833Z,8.64
2022-12-29T19:43:41.214Z,8.61
2022-12-29T19:46:10.833Z,8.59
2022-12-29T19:48:43.772Z,8.56
2022-12-29T19:51:17.543Z,8.54
2022-12-29T19:53:46.863Z,8.53
2022-12-29T19:56:15.061Z,8.51
2022-12-29T19:58:47.152Z,8.50
2022-12-29T20:01:20.955Z,8.49
2022-12-29T20:03:49.636Z,8.48
2022-12-29T20:06:16.897Z,8.47
2022-12-29T20:08:45.417Z,8.45
2022-12-29T20:11:16.312Z,8.43
2022-12-29T20:13:44.131Z,8.42
2022-12-29T20:16:24.196Z,8.40
2022-12-29T20:18:51.000Z,8.40
2022-12-29T20:21:20.487Z,8.37
2022-12-29T20:23:47.531Z,8.37
2022-12-29T20:26:16.835Z,8.36
2022-12-29T20:28:43.413Z,8.36
2022-12-29T20:31:23.416Z,8.35
2022-12-29T20:33:50.220Z,8.33
2022-12-29T20:36:23.545Z,8.34
2022-12-29T20:38:51.730Z,8.34
2022-12-29T20:41:19.088Z,8.34
2022-12-29T20:43:45.681Z,8.33
2022-12-29T20:46:18.136Z,8.33
2022-12-29T20:48:47.691Z,8.33
2022-12-29T20:51:14.292Z,8.33
2022-12-29T20:53:40.771Z,8.31
2022-12-29T20:56:20.419Z,8.30
2022-12-29T20:59:17.532Z,8.28
2022-12-29T21:01:34.231Z,8.24
2022-12-29T21:04:00.937Z,8.22
2022-12-29T21:06:27.764Z,8.19
2022-12-29T21:08:55.028Z,8.17
2022-12-29T21:11:22.501Z,8.15
2022-12-29T21:13:49.219Z,8.13
2022-12-29T21:16:16.232Z,8.10
2022-12-29T21:18:42.872Z,8.08
2022-12-29T21:21:18.495Z,8.05
2022-12-29T21:23:44.989Z,8.03
2022-12-29T21:26:14.940Z,8.01
2022-12-29T21:28:41.609Z,8.00
2022-12-29T21:31:32.848Z,7.99
2022-12-29T21:34:01.493Z,7.95
2022-12-29T21:36:29.402Z,7.95
2022-12-29T21:38:58.157Z,7.96
2022-12-29T21:41:25.025Z,7.94
2022-12-29T21:44:11.494Z,7.93
2022-12-29T21:46:40.154Z,7.93
2022-12-29T21:49:07.304Z,7.91
2022-12-29T21:51:54.103Z,7.89
2022-12-29T21:54:44.821Z,7.88
2022-12-29T21:57:17.974Z,7.88
2022-12-29T22:00:06.065Z,7.88
2022-12-29T22:02:50.988Z,7.88
2022-12-29T22:05:36.200Z,7.88
2022-12-29T22:08:21.400Z,7.89
2022-12-29T22:11:07.224Z,7.88
2022-12-29T22:13:36.299Z,7.88
2022-12-29T22:16:04.389Z,7.85
2022-12-29T22:18:31.502Z,7.85
2022-12-29T22:20:58.386Z,7.84
2022-12-29T22:23:25.815Z,7.82
2022-12-29T22:25:52.780Z,7.82
2022-12-29T22:28:22.675Z,7.80
2022-12-29T22:30:50.753Z,7.80
2022-12-29T22:33:18.018Z,7.82
2022-12-29T22:35:45.911Z,7.80
2022-12-29T22:38:13.425Z,7.80
2022-12-29T22:40:44.335Z,7.78
2022-12-29T22:43:14.382Z,7.79
2022-12-29T22:45:44.669Z,7.76
2022-12-29T22:48:11.489Z,7.75
2022-12-29T22:50:40.491Z,7.73
2022-12-29T22:53:07.332Z,7.71
2022-12-29T22:55:34.439Z,7.70
2022-12-29T22:58:02.822Z,7.70
2022-12-29T23:00:30.182Z,7.70
2022-12-29T23:02:59.726Z,7.68
2022-12-29T23:05:26.774Z,7.66
2022-12-29T23:07:53.452Z,7.64
2022-12-29T23:10:29.602Z,7.64
2022-12-29T23:12:56.768Z,7.64
2022-12-29T23:15:23.781Z,7.64
2022-12-29T23:17:50.206Z,7.63
2022-12-29T23:20:16.688Z,7.63
2022-12-29T23:22:43.035Z,7.62
2022-12-29T23:25:09.730Z,7.62
2022-12-29T23:27:36.117Z,7.62
2022-12-29T23:30:02.646Z,7.62
2022-12-29T23:32:29.052Z,7.62
2022-12-29T23:34:55.513Z,7.63
2022-12-29T23:37:21.892Z,7.63
2022-12-29T23:39:48.297Z,7.62
2022-12-29T23:42:14.870Z,7.60
2022-12-29T23:44:41.226Z,7.59
2022-12-29T23:47:07.696Z,7.59
2022-12-29T23:49:34.062Z,7.58
2022-12-29T23:52:00.467Z,7.56
2022-12-29T23:54:26.867Z,7.54
2022-12-29T23:56:53.204Z,7.53
2022-12-29T23:59:19.655Z,7.51
